Time;durP1;ratioP1;P1;durP2;ratioP2;P2;SDS_P1;SDS_P2;PMS_P1;PMS_P2;Temp;Humidity;BMP_temperature;BMP_pressure;BME280_temperature;BME280_humidity;BME280_pressure;Samples;Min_cycle;Max_cycle;Signal;HPM_P1;HPM_P2
2023/10/19 00:02:15;;;;;;;18.85;13.77;;;;;;;5.61;79.81;99885.47;7396789;19;20018;-68
2023/10/19 00:04:41;;;;;;;20.10;15.07;;;;;;;5.60;79.53;99888.94;7397222;19;20010;-68
2023/10/19 00:07:15;;;;;;;18.10;14.65;;;;;;;5.61;79.45;99903.66;7395831;19;20014;-68
2023/10/19 00:09:45;;;;;;;22.13;15.13;;;;;;;5.61;79.62;99901.06;7397067;19;20014;-68
2023/10/19 00:12:15;;;;;;;17.92;14.15;;;;;;;5.60;79.49;99907.16;7396477;19;20073;-68
2023/10/19 00:14:41;;;;;;;21.80;16.42;;;;;;;5.61;79.57;99908.00;7396140;19;20083;-68
2023/10/19 00:17:11;;;;;;;21.02;14.95;;;;;;;5.59;79.54;99900.22;7395997;19;20072;-68
2023/10/19 00:19:39;;;;;;;20.35;14.38;;;;;;;5.60;79.63;99898.47;7395007;19;20037;-68
2023/10/19 00:22:15;;;;;;;22.75;15.68;;;;;;;5.59;79.64;99889.81;7393562;19;20389;-68
2023/10/19 00:24:45;;;;;;;22.52;14.75;;;;;;;5.58;79.50;99877.69;7394981;19;20010;-68
2023/10/19 00:27:19;;;;;;;22.08;16.10;;;;;;;5.59;79.83;99879.41;7393158;19;20537;-68
2023/10/19 00:29:49;;;;;;;24.40;14.70;;;;;;;5.58;79.82;99872.47;7390907;19;20481;-69
2023/10/19 00:32:19;;;;;;;21.27;15.20;;;;;;;5.57;79.65;99875.94;7394151;19;20014;-69
2023/10/19 00:34:51;;;;;;;22.65;14.65;;;;;;;5.56;79.83;99871.66;7393844;19;20457;-68
2023/10/19 00:37:26;;;;;;;24.60;15.13;;;;;;;5.55;79.80;99860.38;7393491;19;20374;-68
2023/10/19 00:40:14;;;;;;;24.83;15.15;;;;;;;5.53;80.16;99850.88;7392703;19;20014;-68
2023/10/19 00:42:46;;;;;;;20.42;14.63;;;;;;;5.54;79.86;99853.44;7394178;19;20014;-68
2023/10/19 00:45:15;;;;;;;21.50;14.50;;;;;;;5.53;79.87;99841.34;7391278;19;20074;-68
2023/10/19 00:47:44;;;;;;;22.88;15.93;;;;;;;5.53;80.06;99836.13;7392009;19;20014;-69
2023/10/19 00:50:22;;;;;;;20.92;15.63;;;;;;;5.54;79.98;99835.22;7392056;19;20014;-68
2023/10/19 00:52:52;;;;;;;21.10;15.25;;;;;;;5.55;79.88;99825.69;7390903;19;20015;-68
2023/10/19 00:55:25;;;;;;;21.60;14.85;;;;;;;5.55;80.10;99817.91;7393692;19;20021;-68
2023/10/19 00:57:55;;;;;;;19.85;14.10;;;;;;;5.54;80.06;99814.41;7392238;19;20122;-68
2023/10/19 01:00:30;;;;;;;18.33;14.07;;;;;;;5.54;80.10;99806.59;7391280;19;20010;-68
2023/10/19 01:02:59;;;;;;;22.38;15.48;;;;;;;5.54;79.98;99796.19;7392954;19;20544;-67
2023/10/19 01:05:32;;;;;;;22.67;14.98;;;;;;;5.54;80.06;99795.34;7392809;19;20010;-68
2023/10/19 01:08:02;;;;;;;18.58;14.60;;;;;;;5.55;80.09;99789.28;7391084;19;20481;-68
2023/10/19 01:10:33;;;;;;;21.88;15.35;;;;;;;5.55;80.22;99791.88;7393067;19;20016;-68
2023/10/19 01:13:02;;;;;;;21.60;15.57;;;;;;;5.56;80.08;99791.00;7394112;19;20007;-67
2023/10/19 01:15:36;;;;;;;22.08;15.40;;;;;;;5.55;80.05;99784.06;7392535;19;20033;-69
2023/10/19 01:18:07;;;;;;;19.98;14.82;;;;;;;5.55;79.94;99784.91;7391200;19;20011;-68
2023/10/19 01:20:50;;;;;;;20.58;14.55;;;;;;;5.55;79.87;99771.06;7390975;19;20179;-68
2023/10/19 01:23:31;;;;;;;21.23;15.05;;;;;;;5.58;79.82;99778.81;6259672;19;22233211;-67
2023/10/19 01:26:06;;;;;;;22.17;14.70;;;;;;;5.59;80.02;99774.47;7392382;19;20376;-69
2023/10/19 01:28:47;;;;;;;20.20;14.10;;;;;;;5.56;80.10;99775.38;7392984;19;20014;-68
2023/10/19 01:31:22;;;;;;;23.65;15.18;;;;;;;5.56;79.90;99767.56;7394719;19;20015;-68
2023/10/19 01:33:54;;;;;;;22.58;14.93;;;;;;;5.56;80.10;99751.97;7394799;19;20023;-68
2023/10/19 01:36:26;;;;;;;24.23;15.55;;;;;;;5.57;80.02;99756.25;7392786;19;20007;-69
2023/10/19 01:39:00;;;;;;;23.10;13.93;;;;;;;5.59;80.30;99758.84;7392115;19;20030;-68
2023/10/19 01:41:27;;;;;;;;;;;;;;;5.59;80.31;99753.66;7395281;19;20014;-69
2023/10/19 01:44:04;;;;;;;24.15;14.90;;;;;;;5.59;80.07;99748.44;7391666;19;20355;-69
2023/10/19 01:46:33;;;;;;;20.73;14.48;;;;;;;5.59;80.03;99746.69;7392441;19;20085;-67
2023/10/19 01:49:03;;;;;;;22.60;14.25;;;;;;;5.59;80.12;99743.25;7391442;19;20466;-70
2023/10/19 01:51:32;;;;;;;23.55;14.57;;;;;;;5.58;79.88;99744.97;7393495;19;20018;-66
2023/10/19 01:54:04;;;;;;;21.38;13.77;;;;;;;5.59;80.28;99738.88;7393737;19;20011;-67
2023/10/19 01:56:30;;;;;;;20.38;14.10;;;;;;;5.63;80.53;99734.50;7394179;19;20006;-68
2023/10/19 01:58:59;;;;;;;22.13;14.60;;;;;;;5.66;80.25;99726.63;7391050;19;20066;-67
2023/10/19 02:01:28;;;;;;;19.67;14.73;;;;;;;5.67;80.48;99721.41;7393490;19;20011;-67
2023/10/19 02:03:58;;;;;;;19.90;14.30;;;;;;;5.69;80.23;99713.56;7394464;19;20020;-67
2023/10/19 02:06:27;;;;;;;23.05;13.63;;;;;;;5.68;80.12;99704.88;7399544;19;20362;-68
2023/10/19 02:09:00;;;;;;;19.35;13.48;;;;;;;5.69;80.16;99708.38;7402184;19;20011;-68
2023/10/19 02:11:29;;;;;;;19.92;13.07;;;;;;;5.69;79.97;99709.22;7399715;19;20014;-68
2023/10/19 02:14:04;;;;;;;19.48;14.38;;;;;;;5.70;79.93;99699.69;7400560;19;20014;-68
2023/10/19 02:16:31;;;;;;;19.95;14.35;;;;;;;5.69;79.79;99698.78;7400833;19;20074;-68
2023/10/19 02:19:01;;;;;;;23.17;14.18;;;;;;;5.70;79.91;99695.31;7397588;19;20028;-68
2023/10/19 02:21:38;;;;;;;21.15;14.32;;;;;;;5.71;79.82;99702.25;7399703;19;20011;-68
2023/10/19 02:24:07;;;;;;;20.20;14.20;;;;;;;5.71;79.96;99690.97;7400594;19;20021;-67
2023/10/19 02:26:37;;;;;;;19.63;14.10;;;;;;;5.71;79.95;99691.84;7399606;19;20385;-68
2023/10/19 02:29:09;;;;;;;20.23;15.32;;;;;;;5.71;79.81;99684.03;7400058;19;20018;-68
2023/10/19 02:31:37;;;;;;;18.55;14.05;;;;;;;5.71;79.91;99686.63;7399499;19;20484;-68
2023/10/19 02:34:07;;;;;;;18.42;14.35;;;;;;;5.73;79.86;99683.16;7399838;19;20015;-68
2023/10/19 02:36:33;;;;;;;20.75;13.90;;;;;;;5.74;79.63;99687.44;7399631;19;20026;-69
2023/10/19 02:39:07;;;;;;;22.75;14.25;;;;;;;5.74;79.70;99666.63;7397251;19;20018;-67
2023/10/19 02:41:36;;;;;;;19.60;13.93;;;;;;;5.74;79.54;99664.88;7399778;19;20010;-67
2023/10/19 02:44:09;;;;;;;22.33;13.68;;;;;;;5.75;79.68;99663.13;7399146;19;20011;-67
2023/10/19 02:46:38;;;;;;;21.65;14.52;;;;;;;5.75;79.46;99657.94;7399898;19;20014;-67
2023/10/19 02:49:11;;;;;;;20.73;14.60;;;;;;;5.75;79.54;99647.50;7398866;19;20343;-68
2023/10/19 02:51:37;;;;;;;18.77;13.10;;;;;;;5.77;79.62;99650.97;7399704;19;20011;-67
2023/10/19 02:54:15;;;;;;;21.02;14.18;;;;;;;5.78;79.47;99655.28;7399112;19;20015;-67
2023/10/19 02:56:47;;;;;;;20.38;14.32;;;;;;;5.78;79.50;99656.13;7398499;19;20481;-68
2023/10/19 02:59:16;;;;;;;23.02;13.95;;;;;;;5.79;79.45;99647.44;7399256;19;20014;-68
2023/10/19 03:01:44;;;;;;;20.63;14.60;;;;;;;5.78;79.32;99643.13;7398804;19;20034;-67
2023/10/19 03:04:15;;;;;;;20.67;14.20;;;;;;;5.78;79.39;99632.69;7396565;19;20011;-67
2023/10/19 03:06:41;;;;;;;20.55;13.60;;;;;;;5.81;79.24;99637.88;7398947;19;20007;-68
2023/10/19 03:09:22;;;;;;;22.95;14.57;;;;;;;5.81;79.30;99629.19;7398439;19;20011;-67
2023/10/19 03:11:56;;;;;;;21.58;13.93;;;;;;;5.83;79.29;99627.41;7398611;19;20078;-67
2023/10/19 03:14:24;;;;;;;21.42;15.18;;;;;;;5.83;79.38;99617.84;7398744;19;20382;-68
2023/10/19 03:16:54;;;;;;;18.58;13.32;;;;;;;5.83;79.26;99619.59;7395653;19;20014;-68
2023/10/19 03:19:20;;;;;;;23.80;15.27;;;;;;;5.84;79.27;99611.75;7397720;19;20481;-68
2023/10/19 03:21:49;;;;;;;19.33;14.02;;;;;;;5.86;79.16;99602.19;7397547;19;20074;-68
2023/10/19 03:24:23;;;;;;;21.00;14.45;;;;;;;5.87;79.37;99603.03;7398584;19;20021;-68
2023/10/19 03:26:58;;;;;;;20.27;13.25;;;;;;;5.87;79.06;99595.22;7398044;19;20041;-67
2023/10/19 03:29:30;;;;;;;20.83;13.75;;;;;;;5.88;79.02;99592.56;7398405;19;20422;-67
2023/10/19 03:31:59;;;;;;;21.00;14.75;;;;;;;5.88;79.12;99589.13;7397812;19;20029;-68
2023/10/19 03:34:31;;;;;;;22.05;14.52;;;;;;;5.87;79.24;99579.59;7397454;19;20010;-67
2023/10/19 03:37:05;;;;;;;26.70;13.98;;;;;;;5.88;79.27;99576.97;7397211;19;20350;-67
2023/10/19 03:39:33;;;;;;;23.13;15.63;;;;;;;5.88;79.21;99576.09;7397797;19;20019;-68
2023/10/19 03:42:05;;;;;;;20.10;14.70;;;;;;;5.88;79.14;99568.31;7397065;19;20011;-68
2023/10/19 03:44:49;;;;;;;21.85;14.50;;;;;;;5.90;79.11;99573.47;7397797;19;20358;-68
2023/10/19 03:47:19;;;;;;;24.13;15.00;;;;;;;5.88;79.10;99568.31;7396831;19;20024;-68
2023/10/19 03:49:56;;;;;;;21.70;14.43;;;;;;;5.91;79.01;99576.03;7397934;19;20018;-67
2023/10/19 03:52:26;;;;;;;19.67;13.93;;;;;;;5.91;78.89;99567.38;7396683;19;20019;-69
2023/10/19 03:54:57;;;;;;;21.08;14.75;;;;;;;5.92;78.95;99571.69;7396811;19;20354;-68
2023/10/19 03:57:29;;;;;;;21.45;15.00;;;;;;;5.92;79.00;99569.94;7395741;19;20481;-66
2023/10/19 03:59:59;;;;;;;21.33;14.52;;;;;;;5.93;79.06;99570.81;7396403;19;20039;-67
2023/10/19 04:02:29;;;;;;;21.92;15.32;;;;;;;5.94;79.15;99569.91;7394556;19;20038;-67
2023/10/19 04:04:58;;;;;;;28.40;16.55;;;;;;;5.96;79.29;99581.16;7396384;19;20010;-67
2023/10/19 04:07:25;;;;;;;23.55;16.23;;;;;;;5.96;79.41;99581.16;7395774;19;20370;-67
2023/10/19 04:09:59;;;;;;;23.30;16.73;;;;;;;5.96;79.74;99576.78;7396526;19;20037;-67
2023/10/19 04:12:31;;;;;;;24.23;15.13;;;;;;;5.95;79.86;99569.88;7396769;19;20010;-66
2023/10/19 04:15:04;;;;;;;26.30;16.60;;;;;;;5.96;79.79;99570.72;7396403;19;20014;-67
2023/10/19 04:17:36;;;;;;;23.35;16.25;;;;;;;5.95;80.17;99562.09;7395631;19;20074;-67
2023/10/19 04:20:15;;;;;;;23.38;15.95;;;;;;;5.95;80.18;99556.88;7396145;19;20007;-67
2023/10/19 04:22:43;;;;;;;28.40;17.23;;;;;;;5.95;80.45;99550.78;7394884;19;20014;-67
2023/10/19 04:25:13;;;;;;;22.48;16.23;;;;;;;5.94;80.55;99554.28;7394044;19;20014;-67
2023/10/19 04:27:44;;;;;;;24.73;16.33;;;;;;;5.92;80.75;99543.91;7394420;19;20021;-67
2023/10/19 04:30:21;;;;;;;33.17;18.13;;;;;;;5.90;80.82;99550.88;7395822;19;20541;-67
2023/10/19 04:32:52;;;;;;;25.83;16.95;;;;;;;5.87;81.01;99538.78;7396276;19;20014;-67
2023/10/19 04:35:24;;;;;;;31.52;18.95;;;;;;;5.84;81.10;99525.84;7395568;19;20022;-66
2023/10/19 04:37:53;;;;;;;27.65;18.42;;;;;;;5.83;81.60;99512.88;7394309;19;20014;-66
2023/10/19 04:40:22;;;;;;;28.10;17.98;;;;;;;5.80;81.51;99523.34;7394135;19;20078;-67
2023/10/19 04:42:54;;;;;;;26.95;18.17;;;;;;;5.76;82.07;99532.97;7394533;19;20119;-68
2023/10/19 04:45:23;;;;;;;26.90;18.23;;;;;;;5.75;82.10;99530.41;7395026;19;20033;-68
2023/10/19 04:47:54;;;;;;;27.98;18.38;;;;;;;5.73;82.65;99525.22;7394731;19;20014;-67
2023/10/19 04:50:23;;;;;;;26.95;18.35;;;;;;;5.69;83.39;99510.59;7395657;19;20010;-67
2023/10/19 04:52:52;;;;;;;27.13;19.10;;;;;;;5.65;83.82;99491.56;7394051;19;20023;-69
2023/10/19 04:55:21;;;;;;;30.15;20.95;;;;;;;5.62;83.80;99504.63;7395358;19;20027;-67
2023/10/19 04:57:49;;;;;;;31.85;20.02;;;;;;;5.59;83.80;99509.91;7394522;19;20023;-68
2023/10/19 05:00:24;;;;;;;30.73;20.65;;;;;;;5.55;84.13;99506.50;7393312;19;20135;-68
2023/10/19 05:02:53;;;;;;;31.45;21.52;;;;;;;5.54;84.54;99504.78;7392751;19;20010;-68
2023/10/19 05:05:21;;;;;;;27.65;20.73;;;;;;;5.54;84.66;99501.34;7393131;19;20015;-67
2023/10/19 05:07:56;;;;;;;30.90;21.20;;;;;;;5.51;85.03;99491.88;7392536;19;20070;-67
2023/10/19 05:10:25;;;;;;;32.15;21.52;;;;;;;5.50;85.32;99478.91;7393392;19;20047;-68
2023/10/19 05:12:54;;;;;;;31.60;21.98;;;;;;;5.43;85.26;99477.31;7393110;19;20557;-68
2023/10/19 05:15:25;;;;;;;37.15;24.35;;;;;;;5.45;86.00;99476.38;7391940;19;20010;-68
2023/10/19 05:17:54;;;;;;;33.38;23.10;;;;;;;5.42;86.72;99481.66;7393669;19;20011;-68
2023/10/19 05:20:23;;;;;;;32.08;23.45;;;;;;;5.39;86.56;99485.16;7392627;19;20074;-67
2023/10/19 05:22:52;;;;;;;35.33;24.08;;;;;;;5.35;87.72;99480.91;7393209;19;20512;-67
2023/10/19 05:25:23;;;;;;;36.65;23.65;;;;;;;5.32;87.66;99487.91;7394092;19;20014;-67
2023/10/19 05:27:51;;;;;;;36.90;25.52;;;;;;;5.27;88.46;99482.84;7393005;19;20014;-69
2023/10/19 05:30:22;;;;;;;37.63;25.92;;;;;;;5.23;88.47;99481.16;7394031;19;20423;-69
2023/10/19 05:32:55;;;;;;;46.78;29.75;;;;;;;5.21;89.34;99472.53;7392635;19;20011;-69
2023/10/19 05:35:26;;;;;;;37.42;25.38;;;;;;;5.18;89.53;99468.25;7394300;19;20035;-68
2023/10/19 05:37:55;;;;;;;37.13;26.45;;;;;;;5.16;89.82;99458.78;7392194;19;20010;-68
2023/10/19 05:40:29;;;;;;;41.15;26.67;;;;;;;5.12;90.64;99455.38;7398283;19;20094;-69
2023/10/19 05:42:57;;;;;;;40.05;26.60;;;;;;;5.09;90.68;99460.63;7401303;19;20018;-68
2023/10/19 05:45:27;;;;;;;39.15;27.08;;;;;;;5.07;91.33;99462.41;7400262;19;20014;-68
2023/10/19 05:48:00;;;;;;;42.95;26.92;;;;;;;5.08;91.88;99450.28;7398977;19;20011;-68
2023/10/19 05:50:28;;;;;;;43.20;28.00;;;;;;;5.06;92.71;99445.94;7401189;19;20014;-68
2023/10/19 05:53:05;;;;;;;38.70;26.70;;;;;;;5.04;92.74;99452.94;7400282;19;20030;-67
2023/10/19 05:55:34;;;;;;;39.42;26.55;;;;;;;5.01;93.83;99452.97;7401375;19;20035;-67
2023/10/19 05:58:04;;;;;;;46.17;28.05;;;;;;;5.00;93.41;99448.66;7398650;19;20078;-67
2023/10/19 06:00:32;;;;;;;44.70;28.77;;;;;;;4.96;93.65;99449.63;7400854;19;20026;-68
2023/10/19 06:03:04;;;;;;;42.50;28.48;;;;;;;4.98;94.17;99458.25;7399833;19;20010;-68
2023/10/19 06:05:33;;;;;;;43.38;29.40;;;;;;;4.99;94.48;99467.78;7400561;19;20018;-67
2023/10/19 06:08:02;;;;;;;45.00;29.02;;;;;;;4.99;95.14;99467.78;7398090;19;20394;-68
2023/10/19 06:10:32;;;;;;;41.78;28.83;;;;;;;4.99;95.18;99472.09;7399334;19;20454;-67
2023/10/19 06:13:00;;;;;;;47.83;30.13;;;;;;;4.99;95.59;99465.19;7399884;19;20007;-68
2023/10/19 06:15:31;;;;;;;45.42;30.23;;;;;;;4.99;95.58;99462.56;7399908;19;20421;-68
2023/10/19 06:17:59;;;;;;;48.15;31.13;;;;;;;4.99;96.12;99453.91;7397571;19;20027;-68
2023/10/19 06:20:30;;;;;;;43.40;28.65;;;;;;;4.99;96.58;99457.38;7398837;19;20552;-67
2023/10/19 06:23:04;;;;;;;49.60;31.25;;;;;;;4.98;96.71;99454.78;7396389;19;20085;-68
2023/10/19 06:25:34;;;;;;;51.47;31.33;;;;;;;4.96;96.78;99447.03;7399439;19;20026;-68
2023/10/19 06:28:03;;;;;;;40.80;29.25;;;;;;;4.95;97.15;99447.91;7398004;19;20031;-68
2023/10/19 06:30:32;;;;;;;44.03;28.90;;;;;;;4.97;97.14;99442.69;7397265;19;20015;-68
2023/10/19 06:33:02;;;;;;;47.38;29.40;;;;;;;4.96;97.50;99431.44;7399680;19;20014;-68
2023/10/19 06:35:37;;;;;;;46.20;29.67;;;;;;;4.96;97.62;99430.59;7396659;19;20368;-68
2023/10/19 06:38:09;;;;;;;46.38;30.85;;;;;;;4.95;97.90;99427.09;7398394;19;20043;-68
2023/10/19 06:40:38;;;;;;;47.83;30.67;;;;;;;4.92;98.05;99429.78;7399720;19;20501;-67
2023/10/19 06:43:07;;;;;;;47.97;31.38;;;;;;;4.93;98.22;99434.09;7396920;19;20014;-68
2023/10/19 06:45:36;;;;;;;46.47;32.10;;;;;;;4.94;98.49;99445.34;7399166;19;20019;-68
2023/10/19 06:48:06;;;;;;;52.30;33.05;;;;;;;4.95;98.36;99465.25;7397728;19;20074;-69
2023/10/19 06:50:37;;;;;;;51.03;33.38;;;;;;;4.95;98.56;99466.09;7398640;19;20477;-69
2023/10/19 06:53:07;;;;;;;49.47;32.25;;;;;;;4.94;98.78;99459.22;7399583;19;20014;-69
2023/10/19 06:55:35;;;;;;;51.03;32.53;;;;;;;4.96;98.80;99452.22;7398916;19;20021;-69
2023/10/19 06:58:04;;;;;;;50.20;32.33;;;;;;;4.95;99.18;99455.69;7397034;19;20015;-68
2023/10/19 07:00:33;;;;;;;53.83;33.45;;;;;;;4.95;99.08;99460.91;7395780;19;20025;-68
2023/10/19 07:03:03;;;;;;;49.30;32.65;;;;;;;4.98;99.26;99468.66;7398511;19;20021;-68
2023/10/19 07:05:32;;;;;;;48.05;32.85;;;;;;;4.97;99.35;99464.34;7398478;19;20027;-68
2023/10/19 07:08:06;;;;;;;51.90;32.97;;;;;;;5.00;99.72;99448.66;7397016;19;20026;-70
2023/10/19 07:10:35;;;;;;;50.30;33.35;;;;;;;5.00;99.74;99451.28;7396532;19;20015;-70
2023/10/19 07:13:04;;;;;;;50.63;33.00;;;;;;;5.01;99.90;99450.38;7397447;19;20010;-69
2023/10/19 07:15:33;;;;;;;50.25;32.05;;;;;;;5.02;99.90;99446.91;7395377;19;20381;-70
2023/10/19 07:18:02;;;;;;;53.10;33.50;;;;;;;5.03;100.00;99445.16;7396049;19;20074;-70
2023/10/19 07:20:31;;;;;;;54.55;33.95;;;;;;;5.04;100.00;99444.28;7395966;19;20018;-69
2023/10/19 07:23:09;;;;;;;53.30;32.53;;;;;;;5.07;100.00;99446.81;7395180;19;20014;-69
2023/10/19 07:25:42;;;;;;;51.10;34.53;;;;;;;5.11;100.00;99445.88;7397477;19;20481;-69
2023/10/19 07:28:12;;;;;;;54.28;32.92;;;;;;;5.12;100.00;99438.91;7395735;19;20006;-69
2023/10/19 07:30:41;;;;;;;53.72;34.80;;;;;;;5.16;100.00;99441.44;7395491;19;20466;-68
2023/10/19 07:33:10;;;;;;;52.72;34.17;;;;;;;5.19;100.00;99443.97;7397141;19;20015;-68
2023/10/19 07:35:42;;;;;;;54.60;34.67;;;;;;;5.22;100.00;99445.66;7397121;19;20087;-69
2023/10/19 07:38:13;;;;;;;54.13;34.78;;;;;;;5.25;100.00;99426.53;7395662;19;20026;-68
2023/10/19 07:40:41;;;;;;;52.00;32.22;;;;;;;5.27;100.00;99428.22;7395990;19;20073;-69
2023/10/19 07:43:11;;;;;;;50.25;34.45;;;;;;;5.28;100.00;99421.25;7397372;19;20418;-68
2023/10/19 07:45:39;;;;;;;50.80;34.33;;;;;;;5.32;100.00;99426.38;7395360;19;20018;-67
2023/10/19 07:48:10;;;;;;;47.45;32.35;;;;;;;5.34;100.00;99426.34;7394781;19;20494;-67
2023/10/19 07:50:42;;;;;;;52.60;34.53;;;;;;;5.35;100.00;99420.25;7397245;19;20021;-68
2023/10/19 07:53:13;;;;;;;47.78;32.60;;;;;;;5.35;100.00;99417.66;7397036;19;20006;-67
2023/10/19 07:55:43;;;;;;;48.47;32.28;;;;;;;5.35;100.00;99418.50;7396710;19;20086;-67
2023/10/19 07:58:11;;;;;;;55.28;35.40;;;;;;;5.36;100.00;99421.97;7395609;19;20021;-67
2023/10/19 08:00:42;;;;;;;52.10;34.13;;;;;;;5.38;100.00;99420.16;7394602;19;20010;-67
2023/10/19 08:03:13;;;;;;;56.10;34.45;;;;;;;5.39;100.00;99401.91;7392946;19;20023;-68
2023/10/19 08:05:41;;;;;;;54.35;34.70;;;;;;;5.41;100.00;99401.91;7396269;19;20014;-68
2023/10/19 08:08:12;;;;;;;53.08;35.25;;;;;;;5.43;100.00;99407.91;7394516;19;20082;-67
2023/10/19 08:10:41;;;;;;;53.33;35.90;;;;;;;5.44;100.00;99401.81;7394603;19;20031;-67
2023/10/19 08:13:10;;;;;;;53.70;33.78;;;;;;;5.45;100.00;99392.28;7396297;19;20078;-68
2023/10/19 08:15:39;;;;;;;50.33;34.35;;;;;;;5.46;100.00;99388.78;7394438;19;20037;-69
2023/10/19 08:18:08;;;;;;;53.00;34.67;;;;;;;5.47;100.00;99386.16;7393846;19;20481;-68
2023/10/19 08:20:37;;;;;;;51.20;35.17;;;;;;;5.49;100.00;99389.56;7395645;19;20524;-70
2023/10/19 08:23:06;;;;;;;51.80;34.53;;;;;;;5.49;100.00;99378.31;7393706;19;20018;-67
2023/10/19 08:25:37;;;;;;;53.78;36.08;;;;;;;5.52;100.00;99380.84;7395184;19;20013;-67
2023/10/19 08:28:06;;;;;;;78.35;49.70;;;;;;;5.54;100.00;99382.50;7393670;19;20022;-67
2023/10/19 08:30:35;;;;;;;68.07;44.00;;;;;;;5.57;100.00;99384.19;7395566;19;20074;-68
2023/10/19 08:33:03;;;;;;;52.83;35.58;;;;;;;5.60;100.00;99388.47;7393987;19;20006;-68
2023/10/19 08:35:32;;;;;;;48.72;34.05;;;;;;;5.62;100.00;99382.34;7395316;19;20017;-68
2023/10/19 08:38:03;;;;;;;49.55;34.35;;;;;;;5.65;100.00;99384.88;7393644;19;20010;-68
2023/10/19 08:40:32;;;;;;;48.25;33.53;;;;;;;5.66;100.00;99384.00;7395988;19;20015;-68
2023/10/19 08:43:04;;;;;;;48.50;33.17;;;;;;;5.68;100.00;99376.16;7393303;19;20074;-69
2023/10/19 08:45:34;;;;;;;50.25;35.08;;;;;;;5.68;100.00;99374.38;7394959;19;20010;-68
2023/10/19 08:48:04;;;;;;;54.33;34.22;;;;;;;5.72;100.00;99375.19;7394486;19;20014;-67
2023/10/19 08:50:34;;;;;;;48.67;33.30;;;;;;;5.74;100.00;99368.19;7394982;19;20022;-68
2023/10/19 08:53:04;;;;;;;49.28;33.22;;;;;;;5.77;100.00;99372.47;7393403;19;20014;-69
2023/10/19 08:55:34;;;;;;;48.75;33.38;;;;;;;5.78;100.00;99364.63;7394750;19;20010;-67
2023/10/19 08:58:06;;;;;;;50.05;33.47;;;;;;;5.81;100.00;99358.47;7393536;19;20469;-67
2023/10/19 09:00:47;;;;;;;46.25;32.72;;;;;;;5.82;100.00;99353.22;7393626;19;20018;-67
2023/10/19 09:03:16;;;;;;;50.97;33.08;;;;;;;5.86;100.00;99356.63;7393334;19;20086;-67
2023/10/19 09:05:47;;;;;;;53.30;34.88;;;;;;;5.88;100.00;99352.25;7394209;19;20017;-67
2023/10/19 09:08:19;;;;;;;47.47;32.58;;;;;;;5.91;100.00;99346.94;7392899;19;20015;-67
2023/10/19 09:10:49;;;;;;;48.58;32.97;;;;;;;5.94;100.00;99341.69;7392643;19;20014;-67
2023/10/19 09:13:22;;;;;;;47.92;32.05;;;;;;;5.95;100.00;99346.00;7394425;19;20011;-67
2023/10/19 09:15:53;;;;;;;46.83;31.13;;;;;;;6.00;100.00;99349.38;7397448;19;20478;-67
2023/10/19 09:18:23;;;;;;;46.15;31.08;;;;;;;6.01;100.00;99337.19;7399271;19;20010;-67
2023/10/19 09:20:56;;;;;;;44.80;31.60;;;;;;;6.04;100.00;99334.53;7401725;19;20014;-68
2023/10/19 09:23:27;;;;;;;44.25;31.50;;;;;;;6.08;100.00;99337.88;7398921;19;20049;-66
2023/10/19 09:25:56;;;;;;;46.53;30.85;;;;;;;6.10;100.00;99334.34;7401957;19;20073;-66
2023/10/19 09:28:27;;;;;;;42.63;31.30;;;;;;;6.13;100.00;99333.41;7399332;19;20557;-66
2023/10/19 09:30:56;;;;;;;45.35;30.50;;;;;;;6.16;100.00;99334.19;7401994;19;20017;-66
2023/10/19 09:33:25;;;;;;;40.42;30.15;;;;;;;6.18;100.00;99332.41;7398563;19;20014;-67
2023/10/19 09:35:56;;;;;;;42.17;30.77;;;;;;;6.20;100.00;99327.16;7400636;19;20031;-65
2023/10/19 09:38:25;;;;;;;42.85;29.45;;;;;;;6.25;100.00;99327.03;7399004;19;20074;-65
2023/10/19 09:40:57;;;;;;;44.33;31.00;;;;;;;6.26;100.00;99324.38;7400694;19;20010;-65
2023/10/19 09:43:36;;;;;;;38.33;28.52;;;;;;;6.28;100.00;99327.81;7400137;19;20006;-66
2023/10/19 09:46:09;;;;;;;41.03;27.65;;;;;;;6.30;100.00;99333.81;7402011;19;20545;-67
2023/10/19 09:48:42;;;;;;;43.63;29.52;;;;;;;6.32;100.00;99333.81;7398652;19;20066;-66
2023/10/19 09:51:12;;;;;;;40.67;28.57;;;;;;;6.34;100.00;99326.78;7400147;19;20073;-66
2023/10/19 09:53:42;;;;;;;39.38;27.70;;;;;;;6.37;100.00;99331.94;7400373;19;20010;-67
2023/10/19 09:56:15;;;;;;;42.92;29.20;;;;;;;6.39;100.00;99324.06;7400642;19;20102;-67
2023/10/19 09:58:50;;;;;;;41.42;29.05;;;;;;;6.43;100.00;99325.69;7397883;19;20529;-67
2023/10/19 10:01:21;;;;;;;43.40;29.70;;;;;;;6.46;100.00;99320.41;7400298;19;20062;-68
2023/10/19 10:03:51;;;;;;;44.33;31.02;;;;;;;6.50;100.00;99319.41;7397358;19;20010;-67
2023/10/19 10:06:30;;;;;;;38.72;27.67;;;;;;;6.52;100.00;99315.88;7397186;19;20014;-66
2023/10/19 10:09:00;;;;;;;38.13;27.60;;;;;;;6.53;100.00;99306.28;7397567;19;20062;-66
2023/10/19 10:11:30;;;;;;;63.03;36.40;;;;;;;6.57;100.00;99310.53;7397120;19;20069;-66
2023/10/19 10:14:01;;;;;;;49.25;32.17;;;;;;;6.58;100.00;99301.78;7399422;19;20010;-66
2023/10/19 10:16:31;;;;;;;44.53;30.42;;;;;;;6.61;100.00;99298.25;7400293;19;20079;-67
2023/10/19 10:19:01;;;;;;;35.35;27.15;;;;;;;6.62;100.00;99306.03;7397322;19;20029;-67
2023/10/19 10:21:30;;;;;;;38.58;27.92;;;;;;;6.63;100.00;99310.34;7400472;19;20025;-66
2023/10/19 10:24:01;;;;;;;40.15;29.45;;;;;;;6.62;100.00;99306.03;7396508;19;20212;-70
2023/10/19 10:26:36;;;;;;;39.72;28.17;;;;;;;6.65;100.00;99305.94;7398103;19;20007;-65
2023/10/19 10:29:19;;;;;;;44.53;29.55;;;;;;;6.66;100.00;99294.63;7399639;19;20010;-66
2023/10/19 10:31:49;;;;;;;46.00;29.77;;;;;;;6.68;100.00;99287.63;7396996;19;20011;-66
2023/10/19 10:34:45;;;;;;;43.08;29.42;;;;;;;6.69;100.00;99278.03;7398977;19;20014;-67
2023/10/19 10:37:15;;;;;;;44.55;29.92;;;;;;;6.69;100.00;99276.28;7398166;19;20376;-66
2023/10/19 10:39:45;;;;;;;42.20;28.08;;;;;;;6.72;100.00;99282.31;7398067;19;20022;-67
2023/10/19 10:42:14;;;;;;;42.97;27.98;;;;;;;6.74;100.00;99283.13;7398089;19;20473;-67
2023/10/19 10:44:46;;;;;;;43.88;29.15;;;;;;;6.76;100.00;99276.97;7399296;19;20037;-67
2023/10/19 10:47:21;;;;;;;38.33;27.67;;;;;;;6.80;100.00;99272.53;7398672;19;20014;-68
2023/10/19 10:49:54;;;;;;;42.83;29.30;;;;;;;6.80;100.00;99272.53;7399596;19;20015;-67
2023/10/19 10:52:30;;;;;;;40.00;28.48;;;;;;;6.83;100.00;99277.63;7399078;19;20074;-67
2023/10/19 10:54:59;;;;;;;39.55;29.00;;;;;;;6.83;100.00;99270.66;7398359;19;20010;-67
2023/10/19 10:57:34;;;;;;;44.45;29.25;;;;;;;6.85;100.00;99265.41;7396429;19;20055;-67
2023/10/19 11:00:10;;;;;;;39.42;26.85;;;;;;;6.88;100.00;99256.66;7399118;19;20014;-67
2023/10/19 11:02:45;;;;;;;38.78;27.58;;;;;;;6.91;100.00;99254.78;7397146;19;20011;-67
2023/10/19 11:05:14;;;;;;;39.47;28.38;;;;;;;6.95;100.00;99252.94;7396664;19;20031;-66
2023/10/19 11:07:50;;;;;;;36.50;26.33;;;;;;;6.99;100.00;99250.19;7396849;19;20018;-67
2023/10/19 11:10:30;;;;;;;38.05;26.80;;;;;;;7.04;100.00;99249.19;7396057;19;20070;-67
2023/10/19 11:13:03;;;;;;;37.95;27.95;;;;;;;7.07;100.00;99249.94;7395489;19;20097;-67
2023/10/19 11:15:34;;;;;;;39.33;28.67;;;;;;;7.11;100.00;99245.50;7397075;19;20027;-67
2023/10/19 11:18:02;;;;;;;38.63;27.88;;;;;;;7.15;100.00;99236.66;7395778;19;20074;-67
2023/10/19 11:20:32;;;;;;;37.25;27.67;;;;;;;7.20;100.00;99246.97;7396641;19;20037;-67
2023/10/19 11:23:00;;;;;;;40.55;28.48;;;;;;;7.20;100.00;99247.81;7395328;19;20411;-66
2023/10/19 11:25:31;;;;;;;34.75;26.88;;;;;;;7.23;100.00;99245.13;7396857;19;20086;-66
2023/10/19 11:28:01;;;;;;;38.63;27.42;;;;;;;7.26;100.00;99246.78;7395655;19;20030;-67
2023/10/19 11:30:31;;;;;;;34.58;25.88;;;;;;;7.27;100.00;99246.72;7395302;19;20075;-66
2023/10/19 11:33:03;;;;;;;39.30;26.25;;;;;;;7.28;100.00;99243.22;7397174;19;20014;-66
2023/10/19 11:35:34;;;;;;;34.92;24.27;;;;;;;7.28;100.00;99243.22;7399194;19;20041;-66
2023/10/19 11:38:04;;;;;;;33.00;25.85;;;;;;;7.30;100.00;99245.75;7393054;19;20021;-66
2023/10/19 11:40:33;;;;;;;34.78;26.33;;;;;;;7.29;100.00;99242.31;7396638;19;20488;-66